Time;durP1;ratioP1;P1;durP2;ratioP2;P2;SDS_P1;SDS_P2;PMS_P1;PMS_P2;Temp;Humidity;BMP_temperature;BMP_pressure;BME280_temperature;BME280_humidity;BME280_pressure;Samples;Min_cycle;Max_cycle;Signal;HPM_P1;HPM_P2
2020/12/30 00:01:08;;;;;;;19.73;6.50;;;;;;;8.18;100.00;101161.08;1734931;82;21050;-80
2020/12/30 00:03:36;;;;;;;17.73;5.90;;;;;;;8.13;100.00;101159.19;1739926;81;21561;-80
2020/12/30 00:09:27;;;;;;;14.73;6.78;;;;;;;8.09;100.00;101170.13;1743171;82;21184;-81
2020/12/30 00:11:55;;;;;;;14.10;5.97;;;;;;;8.06;100.00;101162.97;1743220;82;21033;-80
2020/12/30 00:14:23;;;;;;;19.20;6.33;;;;;;;8.05;100.00;101159.99;1743149;82;21065;-80
2020/12/30 00:16:51;;;;;;;14.40;5.97;;;;;;;8.10;100.00;101169.23;1743402;82;21692;-81
2020/12/30 00:19:19;;;;;;;13.68;5.40;;;;;;;8.12;100.00;101168.69;1743004;82;21192;-81
2020/12/30 00:21:46;;;;;;;14.53;4.72;;;;;;;8.10;100.00;101167.94;1743154;82;20994;-81
2020/12/30 00:24:14;;;;;;;14.47;5.45;;;;;;;8.12;100.00;101171.27;1743258;82;21058;-81
2020/12/30 00:26:42;;;;;;;14.73;5.75;;;;;;;8.13;100.00;101171.66;1743231;82;21037;-82
2020/12/30 00:29:10;;;;;;;12.78;4.53;;;;;;;8.15;100.00;101163.82;1743312;82;21481;-80
2020/12/30 00:31:38;;;;;;;11.55;5.28;;;;;;;8.16;100.00;101162.91;1743184;82;21204;-80
2020/12/30 00:34:06;;;;;;;16.65;5.62;;;;;;;8.17;100.00;101164.60;1743083;82;21172;-81
2020/12/30 00:36:40;;;;;;;15.80;5.85;;;;;;;8.17;100.00;101165.89;1743260;82;21080;-83
2020/12/30 00:39:08;;;;;;;14.83;4.62;;;;;;;8.16;100.00;101161.63;1743123;81;21137;-80
2020/12/30 00:41:37;;;;;;;14.65;4.62;;;;;;;8.15;100.00;101162.52;1743354;81;21114;-81
2020/12/30 00:44:05;;;;;;;11.08;4.30;;;;;;;8.13;100.00;101162.61;1743239;82;21200;-82
2020/12/30 00:46:32;;;;;;;18.37;4.62;;;;;;;8.11;100.00;101164.87;1743090;82;21216;-81
2020/12/30 00:49:00;;;;;;;13.05;4.97;;;;;;;8.09;100.00;101163.66;1743129;82;21141;-82
2020/12/30 00:51:28;;;;;;;13.15;4.92;;;;;;;8.08;100.00;101157.26;1743226;82;21090;-80
2020/12/30 00:53:56;;;;;;;16.90;5.00;;;;;;;8.07;100.00;101151.28;1743151;82;21141;-83
2020/12/30 00:56:24;;;;;;;16.30;4.92;;;;;;;8.09;100.00;101150.73;1743080;82;21231;-80
2020/12/30 00:58:52;;;;;;;9.28;4.08;;;;;;;8.10;100.00;101148.55;1742861;82;21106;-80
2020/12/30 01:01:21;;;;;;;10.13;4.22;;;;;;;8.10;100.00;101140.79;1743228;82;21579;-81
2020/12/30 01:04:09;;;;;;;12.65;4.35;;;;;;;8.13;100.00;101130.75;1735336;81;21157;-84
2020/12/30 01:06:37;;;;;;;10.48;3.60;;;;;;;8.21;100.00;101128.17;1734913;82;21113;-81
2020/12/30 01:09:06;;;;;;;13.53;4.37;;;;;;;8.28;100.00;101128.73;1735058;82;21267;-82
2020/12/30 01:11:33;;;;;;;14.83;4.28;;;;;;;8.32;100.00;101125.94;1734997;82;21031;-80
2020/12/30 01:14:01;;;;;;;13.00;4.25;;;;;;;8.34;100.00;101121.52;1734803;82;21023;-85
2020/12/30 01:16:29;;;;;;;11.48;3.70;;;;;;;8.41;100.00;101113.84;1735091;82;21239;-81
2020/12/30 01:18:57;;;;;;;11.90;3.62;;;;;;;8.48;100.00;101122.14;1735082;82;21233;-79
2020/12/30 01:21:25;;;;;;;17.52;4.10;;;;;;;8.53;100.00;101124.47;1735220;82;22135;-81
2020/12/30 01:23:52;;;;;;;13.88;3.75;;;;;;;8.58;100.00;101118.17;1734992;82;21510;-81
2020/12/30 01:26:20;;;;;;;15.55;4.83;;;;;;;8.61;100.00;101124.94;1735188;82;21201;-80
2020/12/30 01:28:48;;;;;;;15.60;4.87;;;;;;;8.65;100.00;101128.57;1735273;82;21121;-80
2020/12/30 01:31:16;;;;;;;15.25;5.40;;;;;;;8.68;100.00;101131.00;1735227;82;21114;-81
2020/12/30 01:33:44;;;;;;;13.75;5.15;;;;;;;8.66;100.00;101131.55;1735080;82;21216;-81
2020/12/30 01:36:12;;;;;;;14.43;5.53;;;;;;;8.61;100.00;101135.30;1714525;82;21082;-84
2020/12/30 01:38:39;;;;;;;16.05;4.83;;;;;;;8.56;100.00;101138.09;1735073;82;21118;-82
2020/12/30 01:41:08;;;;;;;17.17;4.70;;;;;;;8.50;100.00;101134.07;1734907;82;20999;-81
2020/12/30 01:43:36;;;;;;;16.12;4.67;;;;;;;8.45;100.00;101133.48;1735212;82;21177;-80
2020/12/30 01:46:05;;;;;;;13.80;4.00;;;;;;;8.41;100.00;101125.48;1735105;82;22179;-83
2020/12/30 01:48:34;;;;;;;19.02;4.67;;;;;;;8.36;100.00;101124.05;1734998;82;21055;-79
2020/12/30 01:51:02;;;;;;;14.47;3.30;;;;;;;8.32;100.00;101131.56;1734875;82;21000;-82
2020/12/30 01:53:29;;;;;;;10.72;3.70;;;;;;;8.27;100.00;101129.16;1735195;82;21145;-81
2020/12/30 01:55:58;;;;;;;12.53;4.00;;;;;;;8.25;100.00;101135.32;1735003;82;21200;-84
2020/12/30 01:58:25;;;;;;;16.30;4.25;;;;;;;8.23;100.00;101126.81;1735156;82;21442;-84
2020/12/30 02:00:53;;;;;;;8.58;2.70;;;;;;;8.19;100.00;101122.25;1734911;82;21098;-81
2020/12/30 02:03:21;;;;;;;8.88;3.10;;;;;;;8.15;100.00;101118.58;1734878;81;21188;-84
2020/12/30 02:05:49;;;;;;;11.90;3.05;;;;;;;8.11;100.00;101116.59;1735053;82;21581;-83
2020/12/30 02:08:16;;;;;;;12.40;3.25;;;;;;;8.09;100.00;101111.13;1734911;82;21553;-85
2020/12/30 02:10:44;;;;;;;10.60;3.55;;;;;;;8.10;100.00;101110.22;1734982;82;21329;-85
2020/12/30 02:13:12;;;;;;;11.93;3.35;;;;;;;8.08;100.00;101110.28;1735087;82;21069;-85
2020/12/30 02:15:40;;;;;;;13.20;3.80;;;;;;;8.04;100.00;101115.21;1735210;82;21561;-85
2020/12/30 02:18:08;;;;;;;12.03;3.45;;;;;;;8.01;100.00;101114.55;1735166;82;21133;-86
2020/12/30 02:20:37;;;;;;;13.88;3.60;;;;;;;7.99;100.00;101113.31;1735557;82;21058;-85
2020/12/30 02:23:08;;;;;;;13.15;3.85;;;;;;;7.94;100.00;101108.36;1735700;82;22101;-85
2020/12/30 02:25:37;;;;;;;16.10;4.03;;;;;;;7.90;100.00;101096.97;1735919;82;20955;-85
2020/12/30 02:28:05;;;;;;;12.60;3.72;;;;;;;7.86;100.00;101105.77;1735692;82;21022;-85
2020/12/30 02:30:33;;;;;;;11.33;3.87;;;;;;;7.81;100.00;101107.30;1735352;82;20995;-86
2020/12/30 02:33:08;;;;;;;9.40;3.42;;;;;;;7.74;100.00;101101.19;1736174;82;21192;-86
2020/12/30 02:35:36;;;;;;;12.60;4.08;;;;;;;7.69;100.00;101100.09;1716125;82;21247;-86
2020/12/30 02:38:04;;;;;;;14.20;4.45;;;;;;;7.62;100.00;101087.56;1735521;82;21086;-86
2020/12/30 02:40:31;;;;;;;14.30;4.45;;;;;;;7.57;100.00;101088.22;1734858;82;21220;-86
2020/12/30 02:42:59;;;;;;;13.83;3.52;;;;;;;7.52;100.00;101078.56;1735167;82;21046;-83
2020/12/30 02:45:27;;;;;;;13.58;4.00;;;;;;;7.50;100.00;101077.33;1735378;82;21157;-84
2020/12/30 02:47:55;;;;;;;15.98;4.47;;;;;;;7.50;100.00;101073.45;1735234;82;22094;-84
2020/12/30 02:50:23;;;;;;;12.63;3.65;;;;;;;7.51;100.00;101077.73;1736060;82;21145;-85
2020/12/30 02:52:52;;;;;;;15.32;3.30;;;;;;;7.52;100.00;101066.50;1735754;82;20952;-85
2020/12/30 02:55:20;;;;;;;11.22;3.47;;;;;;;7.54;100.00;101075.45;1736032;82;21172;-85
2020/12/30 02:57:48;;;;;;;9.25;3.05;;;;;;;7.55;100.00;101083.14;1735946;82;21213;-86
2020/12/30 03:00:16;;;;;;;10.35;3.10;;;;;;;7.56;100.00;101078.81;1736781;82;21182;-85
2020/12/30 03:02:43;;;;;;;12.85;3.40;;;;;;;7.56;100.00;101090.44;1736035;82;21140;-85
2020/12/30 03:07:58;;;;;;;12.85;3.25;;;;;;;7.55;100.00;101084.43;1955173;72;22165;-83
2020/12/30 03:10:26;;;;;;;10.43;3.33;;;;;;;7.51;100.00;101085.92;1921318;74;21494;-83
2020/12/30 03:12:54;;;;;;;10.53;3.12;;;;;;;7.47;100.00;101083.93;1920478;74;22231;-83
2020/12/30 03:15:22;;;;;;;11.20;3.42;;;;;;;7.48;100.00;101074.00;1920730;74;21023;-83
2020/12/30 03:17:52;;;;;;;15.95;3.65;;;;;;;7.51;100.00;101071.72;1920766;74;21637;-82
2020/12/30 03:20:20;;;;;;;10.15;3.25;;;;;;;7.57;100.00;101075.30;1920534;74;21182;-81
2020/12/30 03:22:48;;;;;;;11.68;2.70;;;;;;;7.60;100.00;101069.98;1920402;74;20962;-80
2020/12/30 03:25:17;;;;;;;13.28;3.27;;;;;;;7.64;100.00;101074.11;1920557;74;21173;-78
2020/12/30 03:27:44;;;;;;;8.55;2.55;;;;;;;7.69;100.00;101078.63;1920194;74;21563;-80
2020/12/30 03:30:12;;;;;;;11.83;2.98;;;;;;;7.76;100.00;101074.81;1920543;74;20929;-80
2020/12/30 03:32:40;;;;;;;12.37;3.10;;;;;;;7.84;100.00;101072.27;1920488;74;21539;-79
2020/12/30 03:35:08;;;;;;;8.88;2.40;;;;;;;7.93;100.00;101082.61;1920479;74;21098;-78
2020/12/30 03:37:36;;;;;;;12.53;3.83;;;;;;;8.01;100.00;101091.30;1920459;74;21598;-77
2020/12/30 03:40:04;;;;;;;17.77;3.60;;;;;;;8.08;100.00;101088.77;1920138;74;20924;-81
2020/12/30 03:42:32;;;;;;;11.05;3.00;;;;;;;8.16;100.00;101091.37;1920342;74;21044;-84
2020/12/30 03:45:00;;;;;;;11.93;2.70;;;;;;;8.24;100.00;101082.77;1920223;74;20980;-80
2020/12/30 03:47:30;;;;;;;15.38;2.80;;;;;;;8.30;100.00;101086.83;1920429;74;20980;-82
2020/12/30 03:49:58;;;;;;;11.38;2.87;;;;;;;8.36;100.00;101085.26;1920223;74;21656;-76
2020/12/30 03:52:25;;;;;;;9.88;3.12;;;;;;;8.40;100.00;101077.25;1920332;74;21004;-79
2020/12/30 03:54:53;;;;;;;11.30;3.10;;;;;;;8.41;100.00;101080.23;1920263;74;20913;-81
2020/12/30 03:57:22;;;;;;;18.15;3.60;;;;;;;8.42;100.00;101078.48;1920475;74;21012;-79
2020/12/30 03:59:51;;;;;;;11.28;3.10;;;;;;;8.42;100.00;101076.70;1920748;74;20961;-77
2020/12/30 04:02:19;;;;;;;10.65;2.95;;;;;;;8.45;100.00;101077.87;1920750;74;21167;-81
2020/12/30 04:04:47;;;;;;;13.78;3.98;;;;;;;8.48;100.00;101074.28;1920450;74;21079;-79
2020/12/30 04:07:15;;;;;;;11.70;3.40;;;;;;;8.50;100.00;101073.74;1920270;73;21028;-81
2020/12/30 04:09:44;;;;;;;14.33;3.02;;;;;;;8.47;100.00;101069.56;1920506;74;21137;-77
2020/12/30 04:12:12;;;;;;;13.35;2.80;;;;;;;8.42;100.00;101078.48;1920996;74;20889;-84
2020/12/30 04:14:40;;;;;;;14.33;3.15;;;;;;;8.39;100.00;101082.03;1920694;74;21172;-85
2020/12/30 04:17:08;;;;;;;14.33;3.12;;;;;;;8.35;100.00;101075.36;1920038;74;21577;-84
2020/12/30 04:19:37;;;;;;;13.43;3.35;;;;;;;8.27;100.00;101074.86;1920095;74;20937;-84
2020/12/30 04:22:05;;;;;;;12.45;3.35;;;;;;;8.21;100.00;101079.50;1919489;74;21031;-85
2020/12/30 04:24:33;;;;;;;12.18;3.35;;;;;;;8.11;100.00;101078.27;1919997;74;21022;-83
2020/12/30 04:27:01;;;;;;;14.28;3.42;;;;;;;8.03;100.00;101089.00;1920060;74;22217;-85
2020/12/30 04:29:29;;;;;;;13.25;3.72;;;;;;;7.93;100.00;101097.66;1919930;74;21130;-85
2020/12/30 04:31:57;;;;;;;13.78;3.65;;;;;;;7.86;100.00;101098.02;1919847;74;21197;-84
2020/12/30 04:34:25;;;;;;;11.83;3.55;;;;;;;7.79;100.00;101097.91;1919944;74;20976;-85
2020/12/30 04:36:53;;;;;;;8.90;3.37;;;;;;;7.71;100.00;101091.84;1919626;74;20961;-83
2020/12/30 04:39:21;;;;;;;20.25;4.67;;;;;;;7.67;100.00;101094.63;1919554;74;21166;-83
2020/12/30 04:41:49;;;;;;;16.75;4.42;;;;;;;7.63;100.00;101093.09;1919733;74;20945;-82
2020/12/30 04:44:17;;;;;;;15.78;4.42;;;;;;;7.61;100.00;101091.05;1919581;74;20976;-81
2020/12/30 04:46:46;;;;;;;10.43;3.77;;;;;;;7.59;100.00;101091.13;1887470;74;20957;-81
2020/12/30 04:49:14;;;;;;;16.45;4.37;;;;;;;7.59;100.00;101086.42;1887306;74;20909;-79
2020/12/30 04:51:42;;;;;;;12.43;3.70;;;;;;;7.59;100.00;101083.83;1919789;74;21174;-81
2020/12/30 04:54:10;;;;;;;12.45;3.77;;;;;;;7.60;100.00;101088.07;1919888;74;20873;-82
2020/12/30 04:56:57;;;;;;;15.15;4.53;;;;;;;7.59;100.00;101089.84;1887216;74;20933;-81
2020/12/30 04:59:32;;;;;;;11.65;3.50;;;;;;;7.60;100.00;101090.20;1919679;74;21178;-83
2020/12/30 05:02:09;;;;;;;14.85;3.95;;;;;;;7.59;100.00;101092.42;1919374;74;21071;-79
2020/12/30 05:04:40;;;;;;;14.40;4.20;;;;;;;7.58;100.00;101089.45;1919668;74;21171;-82
2020/12/30 05:07:12;;;;;;;15.18;3.87;;;;;;;7.60;100.00;101095.82;1922263;74;21099;-84
2020/12/30 05:09:43;;;;;;;11.93;3.35;;;;;;;7.62;100.00;101102.61;1926395;74;21027;-82
2020/12/30 05:12:17;;;;;;;11.20;3.17;;;;;;;7.64;100.00;101105.11;1926558;74;21510;-80
2020/12/30 05:14:45;;;;;;;18.07;3.42;;;;;;;7.63;100.00;101099.09;1926576;74;21119;-81
2020/12/30 05:17:14;;;;;;;7.92;3.15;;;;;;;7.64;100.00;101097.36;1926741;74;22016;-81
2020/12/30 05:19:43;;;;;;;12.25;3.22;;;;;;;7.64;100.00;101090.45;1926435;73;20951;-78
2020/12/30 05:22:19;;;;;;;11.88;3.85;;;;;;;7.63;100.00;101091.34;1926518;74;21170;-79
2020/12/30 05:24:47;;;;;;;13.30;3.87;;;;;;;7.67;100.00;101101.09;1926507;74;20961;-79
2020/12/30 05:27:16;;;;;;;12.90;3.62;;;;;;;7.65;100.00;101106.79;1926544;74;21016;-82
2020/12/30 05:29:49;;;;;;;17.70;3.65;;;;;;;7.64;100.00;101116.28;1926671;74;21463;-85
2020/12/30 05:32:17;;;;;;;11.00;3.40;;;;;;;7.62;100.00;101108.23;1926313;74;21020;-84
2020/12/30 05:34:45;;;;;;;15.72;4.03;;;;;;;7.59;100.00;101108.37;1926517;73;20965;-81
2020/12/30 05:37:17;;;;;;;15.03;3.83;;;;;;;7.56;100.00;101111.94;1926540;74;20850;-85
2020/12/30 05:39:45;;;;;;;13.48;4.40;;;;;;;7.55;100.00;101106.83;1926798;74;21002;-83
2020/12/30 05:42:16;;;;;;;13.13;3.60;;;;;;;7.54;100.00;101108.57;1926513;74;21167;-81
2020/12/30 05:44:49;;;;;;;13.83;4.50;;;;;;;7.53;100.00;101110.76;1926923;74;21047;-83
2020/12/30 05:47:25;;;;;;;13.40;3.90;;;;;;;7.52;100.00;101106.97;1926558;73;21153;-84
2020/12/30 05:49:55;;;;;;;14.90;4.12;;;;;;;7.48;100.00;101101.11;1926174;74;20980;-81
2020/12/30 05:52:25;;;;;;;16.85;5.17;;;;;;;7.44;100.00;101099.56;1926688;74;21031;-83
2020/12/30 05:55:01;;;;;;;16.67;4.92;;;;;;;7.44;100.00;101091.82;1926733;74;21184;-80
2020/12/30 05:57:33;;;;;;;12.95;5.00;;;;;;;7.48;100.00;101095.95;1926583;74;20980;-80
2020/12/30 06:00:09;;;;;;;13.85;4.55;;;;;;;7.52;100.00;101088.90;1926671;74;21546;-80
2020/12/30 06:02:42;;;;;;;14.33;4.75;;;;;;;7.55;100.00;101091.34;1926676;74;21503;-83
2020/12/30 06:05:18;;;;;;;17.82;5.40;;;;;;;7.61;100.00;101096.21;1926310;74;21035;-84
2020/12/30 06:07:51;;;;;;;16.42;5.25;;;;;;;7.63;100.00;101096.52;1922987;73;21550;-85
2020/12/30 06:10:23;;;;;;;14.63;4.55;;;;;;;7.66;100.00;101092.98;1919889;74;21510;-83
2020/12/30 06:13:02;;;;;;;13.93;4.20;;;;;;;7.67;100.00;101101.92;1919567;74;21290;-79
2020/12/30 06:15:33;;;;;;;14.98;4.05;;;;;;;7.68;100.00;101101.48;1919607;74;20893;-80
2020/12/30 06:18:10;;;;;;;10.38;3.85;;;;;;;7.71;100.00;101091.00;1919771;74;20894;-81
2020/12/30 06:20:40;;;;;;;11.40;4.05;;;;;;;7.71;100.00;101088.42;1919906;74;22097;-82
2020/12/30 06:23:12;;;;;;;17.42;4.33;;;;;;;7.72;100.00;101093.49;1919631;74;21574;-80
2020/12/30 06:25:49;;;;;;;14.93;3.30;;;;;;;7.74;100.00;101090.85;1919932;74;28129;-82
2020/12/30 06:28:20;;;;;;;10.85;3.70;;;;;;;7.77;100.00;101098.45;1919762;74;21566;-81
2020/12/30 06:30:49;;;;;;;11.33;3.80;;;;;;;7.80;100.00;101098.31;1919763;74;20953;-83
2020/12/30 06:33:24;;;;;;;11.80;3.50;;;;;;;7.83;100.00;101091.70;1919889;73;21637;-85
2020/12/30 06:35:56;;;;;;;14.35;3.85;;;;;;;7.85;100.00;101096.33;1919662;74;20898;-85
2020/12/30 06:38:28;;;;;;;13.85;3.92;;;;;;;7.87;100.00;101101.83;1919833;74;20885;-85
2020/12/30 06:41:04;;;;;;;18.90;4.97;;;;;;;7.91;100.00;101113.67;1919635;74;21755;-86
2020/12/30 06:43:49;;;;;;;24.60;5.78;;;;;;;7.94;100.00;101103.67;1919743;74;21077;-84
2020/12/30 06:46:28;;;;;;;17.12;4.72;;;;;;;7.98;100.00;101099.55;1919275;73;21204;-85
2020/12/30 06:49:03;;;;;;;14.10;4.00;;;;;;;8.05;100.00;101096.67;1919591;74;20976;-84
2020/12/30 06:51:37;;;;;;;16.00;4.20;;;;;;;8.13;100.00;101097.99;1919616;74;20905;-84
2020/12/30 06:54:04;;;;;;;16.50;3.95;;;;;;;8.21;100.00;101101.02;1919804;73;20965;-80
2020/12/30 06:56:47;;;;;;;13.68;3.80;;;;;;;8.27;100.00;101102.45;1902216;74;21039;-82
2020/12/30 06:59:29;;;;;;;19.77;4.58;;;;;;;8.32;100.00;101110.42;1883844;75;22244;-81
2020/12/30 07:02:07;;;;;;;12.88;3.58;;;;;;;8.36;100.00;101109.82;1883733;74;21213;-85
2020/12/30 07:04:35;;;;;;;16.42;4.83;;;;;;;8.40;100.00;101114.75;1842069;77;21542;-85
2020/12/30 07:07:20;;;;;;;11.78;3.22;;;;;;;8.43;100.00;101116.34;1825370;77;21053;-83
2020/12/30 07:09:48;;;;;;;11.97;3.75;;;;;;;8.48;100.00;101107.91;1851241;76;21105;-85
2020/12/30 07:12:18;;;;;;;14.43;4.20;;;;;;;8.54;100.00;101114.06;1851451;77;21180;-85
2020/12/30 07:14:47;;;;;;;10.25;4.25;;;;;;;8.59;100.00;101117.24;1818140;78;20963;-84
2020/12/30 07:17:15;;;;;;;12.65;4.08;;;;;;;8.62;100.00;101118.37;1751726;79;21008;-84
2020/12/30 07:19:44;;;;;;;10.78;3.92;;;;;;;8.65;100.00;101117.38;1738629;80;21224;-84
2020/12/30 07:22:13;;;;;;;15.20;3.50;;;;;;;8.69;100.00;101122.79;1785654;79;21165;-80
2020/12/30 07:24:54;;;;;;;11.63;3.70;;;;;;;8.72;100.00;101121.34;1785904;79;21208;-86
2020/12/30 07:27:28;;;;;;;13.32;3.85;;;;;;;8.78;100.00;101119.73;1813062;78;21228;-84
2020/12/30 07:29:56;;;;;;;14.10;3.87;;;;;;;8.84;100.00;101122.00;1811131;77;21133;-82
2020/12/30 07:32:24;;;;;;;13.85;4.67;;;;;;;8.89;100.00;101116.98;1805559;79;21165;-84
2020/12/30 07:34:52;;;;;;;11.10;3.42;;;;;;;8.96;100.00;101109.74;1811572;77;21172;-84
2020/12/30 07:37:21;;;;;;;11.50;3.70;;;;;;;9.02;100.00;101102.95;1795389;78;21241;-80
2020/12/30 07:39:49;;;;;;;10.10;3.85;;;;;;;9.11;100.00;101113.27;1809511;78;21134;-84
2020/12/30 07:42:20;;;;;;;12.28;4.00;;;;;;;9.12;100.00;101111.06;1804271;78;20992;-81
2020/12/30 07:44:55;;;;;;;14.38;4.45;;;;;;;9.13;100.00;101113.56;1805092;79;21083;-82
2020/12/30 07:47:26;;;;;;;16.10;5.75;;;;;;;9.16;100.00;101114.69;1817237;78;21180;-83
2020/12/30 07:50:01;;;;;;;15.45;6.00;;;;;;;9.22;100.00;101119.54;1817646;79;21443;-80
2020/12/30 07:52:31;;;;;;;18.75;5.60;;;;;;;9.30;100.00;101121.28;1818084;78;21059;-78
2020/12/30 07:55:00;;;;;;;16.10;5.30;;;;;;;9.39;100.00;101123.38;1818002;78;21082;-77
2020/12/30 07:57:28;;;;;;;18.82;4.53;;;;;;;9.46;100.00;101133.79;1818283;78;21102;-77
2020/12/30 07:59:57;;;;;;;11.88;4.53;;;;;;;9.53;100.00;101142.91;1817411;78;22166;-80
2020/12/30 08:02:25;;;;;;;11.10;4.20;;;;;;;9.61;100.00;101141.63;1817874;78;21622;-81
2020/12/30 08:05:00;;;;;;;15.28;4.75;;;;;;;9.66;100.00;101131.87;1817951;78;21193;-80
2020/12/30 08:07:30;;;;;;;13.88;4.05;;;;;;;9.71;100.00;101130.69;1816650;78;21322;-79
2020/12/30 08:09:58;;;;;;;9.98;4.05;;;;;;;9.78;100.00;101131.19;1811536;79;21145;-78
2020/12/30 08:12:27;;;;;;;11.65;4.12;;;;;;;9.83;100.00;101131.77;1802238;78;21172;-84
2020/12/30 08:14:55;;;;;;;17.92;5.00;;;;;;;9.87;100.00;101131.52;1758411;80;21230;-85
2020/12/30 08:17:24;;;;;;;11.55;4.62;;;;;;;9.94;100.00;101135.91;1758427;81;21211;-82
2020/12/30 08:19:52;;;;;;;14.20;4.25;;;;;;;9.99;100.00;101122.21;1758617;80;21194;-83
2020/12/30 08:25:09;;;;;;;19.35;6.70;;;;;;;10.17;100.00;101116.03;1954021;73;22720;-81
2020/12/30 08:27:39;;;;;;;23.90;8.78;;;;;;;10.19;100.00;101116.77;1915224;74;21111;-80
2020/12/30 08:30:07;;;;;;;18.15;7.78;;;;;;;10.24;100.00;101117.83;1884670;76;21621;-84
2020/12/30 08:32:58;;;;;;;14.53;5.33;;;;;;;10.28;100.00;101112.81;1904149;73;20984;-79
2020/12/30 08:35:34;;;;;;;13.68;4.67;;;;;;;10.35;100.00;101115.43;1884820;74;21036;-79
2020/12/30 08:38:11;;;;;;;14.13;4.45;;;;;;;10.42;100.00;101108.52;1884463;74;21042;-82
2020/12/30 08:40:40;;;;;;;9.23;3.80;;;;;;;10.52;100.00;101110.11;1853576;76;21060;-82
2020/12/30 08:43:32;;;;;;;14.75;4.30;;;;;;;10.61;100.00;101109.56;1884713;74;21704;-82
2020/12/30 08:46:04;;;;;;;14.50;6.00;;;;;;;10.71;100.00;101104.66;1884223;76;21550;-82
2020/12/30 08:48:35;;;;;;;15.75;5.70;;;;;;;10.87;99.86;101099.77;1886275;76;21459;-84
2020/12/30 08:51:05;;;;;;;9.40;4.25;;;;;;;11.00;99.56;101091.61;1888799;73;20980;-82
2020/12/30 08:53:39;;;;;;;12.18;4.83;;;;;;;11.17;99.20;101097.05;1900503;74;21122;-80
2020/12/30 08:56:08;;;;;;;14.38;4.62;;;;;;;11.31;98.33;101097.50;1896587;73;21187;-82
2020/12/30 08:58:38;;;;;;;9.70;4.65;;;;;;;11.46;97.78;101095.24;1839342;76;20997;-83
2020/12/30 09:01:25;;;;;;;11.78;4.72;;;;;;;11.59;97.25;101094.37;1846614;76;21155;-83
2020/12/30 09:04:09;;;;;;;12.93;5.10;;;;;;;11.72;96.22;101088.43;1841677;76;21551;-80
2020/12/30 09:06:38;;;;;;;12.35;4.33;;;;;;;11.75;95.27;101082.56;1858839;76;21100;-85
2020/12/30 09:09:13;;;;;;;15.68;5.08;;;;;;;11.83;94.89;101085.98;1891640;75;21559;-83
2020/12/30 09:11:47;;;;;;;10.13;4.15;;;;;;;11.92;94.76;101078.89;1863482;76;21040;-81
2020/12/30 09:14:21;;;;;;;16.57;4.58;;;;;;;12.02;94.36;101082.11;1832015;76;21009;-82
2020/12/30 09:16:57;;;;;;;14.98;4.03;;;;;;;12.09;93.53;101084.64;1830426;77;21064;-82
2020/12/30 09:19:26;;;;;;;9.35;4.10;;;;;;;12.16;93.42;101082.48;1849083;76;21108;-84
2020/12/30 09:22:08;;;;;;;11.20;3.50;;;;;;;12.26;93.49;101073.13;1826566;77;21180;-81
2020/12/30 09:24:38;;;;;;;14.55;5.15;;;;;;;12.39;93.40;101075.28;1833412;75;21626;-84
2020/12/30 09:27:20;;;;;;;9.58;4.25;;;;;;;12.60;92.98;101071.72;1833443;77;21609;-85
2020/12/30 09:30:32;;;;;;;13.10;4.67;;;;;;;12.82;92.32;101068.48;1829915;77;21203;-83
2020/12/30 09:33:13;;;;;;;13.05;4.10;;;;;;;13.09;91.10;101059.61;1838499;77;21132;-83
2020/12/30 09:36:03;;;;;;;16.10;4.40;;;;;;;13.68;88.45;101057.97;1855389;76;21247;-86
2020/12/30 09:38:45;;;;;;;13.85;4.60;;;;;;;14.27;86.38;101046.17;1851197;76;21103;-84
2020/12/30 09:41:15;;;;;;;12.18;4.75;;;;;;;15.15;82.14;101040.68;1841918;77;20907;-84
2020/12/30 09:43:46;;;;;;;11.65;4.37;;;;;;;15.82;79.06;101048.73;1865072;77;21462;-83
2020/12/30 09:46:24;;;;;;;12.20;4.53;;;;;;;16.33;75.44;101046.69;1842809;77;21062;-86
2020/12/30 09:49:00;;;;;;;12.82;4.60;;;;;;;16.21;72.36;101039.86;1825508;78;21181;-85
2020/12/30 09:51:35;;;;;;;12.75;6.05;;;;;;;15.83;73.02;101040.37;1823705;75;20934;-86
2020/12/30 09:54:07;;;;;;;12.07;4.92;;;;;;;15.39;73.93;101034.80;1828908;77;20970;-83
2020/12/30 09:56:37;;;;;;;18.37;5.72;;;;;;;15.14;75.15;101028.08;1876818;76;21048;-86
2020/12/30 09:59:11;;;;;;;13.03;4.33;;;;;;;14.85;75.78;101028.22;1838150;77;21098;-81
2020/12/30 10:01:57;;;;;;;;;;;;;;;;;;;;;
2020/12/30 10:04:43;;;;;;;11.45;4.60;;;;;;;14.57;77.54;101030.00;1847124;77;22822;-82
2020/12/30 10:07:12;;;;;;;9.68;4.65;;;;;;;14.53;77.88;101027.27;1809159;78;20977;-82
2020/12/30 10:09:41;;;;;;;13.25;4.58;;;;;;;14.52;78.03;101029.03;1804400;78;21272;-84
2020/12/30 10:12:09;;;;;;;12.30;4.83;;;;;;;14.64;78.09;101016.84;1796789;78;21169;-82
2020/12/30 10:14:38;;;;;;;13.53;5.60;;;;;;;14.82;77.51;101009.70;1791435;78;21166;-85
2020/12/30 10:17:08;;;;;;;14.38;4.90;;;;;;;14.88;76.90;100997.94;1801641;78;21065;-83
2020/12/30 10:19:36;;;;;;;14.07;5.20;;;;;;;14.93;76.95;101000.20;1795651;78;21160;-82
2020/12/30 10:22:11;;;;;;;15.23;5.42;;;;;;;14.81;76.44;100995.44;1806674;78;21205;-83
2020/12/30 10:24:45;;;;;;;15.35;5.50;;;;;;;14.51;77.04;100995.22;1792224;78;21119;-83
2020/12/30 10:27:13;;;;;;;17.55;5.10;;;;;;;14.27;78.23;100984.36;1780066;78;21656;-82
2020/12/30 10:29:44;;;;;;;10.15;4.15;;;;;;;14.09;78.77;100992.76;1784680;78;21586;-84
2020/12/30 10:32:20;;;;;;;15.90;5.10;;;;;;;13.99;79.74;100997.84;1770479;79;21229;-83
2020/12/30 10:34:49;;;;;;;15.70;5.25;;;;;;;13.94;80.29;100988.70;1808558;78;21246;-84
2020/12/30 10:37:20;;;;;;;13.22;5.22;;;;;;;13.91;80.94;100990.23;1818638;78;21061;-85
2020/12/30 10:39:49;;;;;;;16.17;6.10;;;;;;;13.86;81.40;100985.34;1816193;78;21078;-87
2020/12/30 10:42:18;;;;;;;14.28;5.80;;;;;;;13.86;81.85;100988.42;1793321;78;21152;-84
2020/12/30 10:44:46;;;;;;;18.87;5.03;;;;;;;13.86;82.04;100987.11;1807141;78;21123;-82
2020/12/30 10:47:15;;;;;;;13.28;4.65;;;;;;;13.78;82.20;100982.48;1779692;78;21369;-80
2020/12/30 10:49:44;;;;;;;17.12;4.97;;;;;;;13.71;82.74;100978.66;1782322;78;21078;-79
2020/12/30 10:52:13;;;;;;;15.48;4.92;;;;;;;13.68;82.90;100972.37;1787942;78;21099;-82
2020/12/30 10:54:44;;;;;;;14.05;4.00;;;;;;;13.66;83.15;100962.50;1775174;79;21478;-81
2020/12/30 10:57:12;;;;;;;12.80;4.40;;;;;;;13.68;83.51;100955.42;1775517;79;21139;-83
2020/12/30 10:59:40;;;;;;;11.75;4.10;;;;;;;13.74;83.59;100953.19;1774149;79;21186;-81
2020/12/30 11:02:11;;;;;;;15.45;4.78;;;;;;;13.90;83.31;100952.88;1776936;79;21043;-85
2020/12/30 11:04:39;;;;;;;15.53;4.40;;;;;;;14.09;83.10;100947.92;1766110;79;21208;-85
2020/12/30 11:07:09;;;;;;;12.82;4.15;;;;;;;14.53;82.69;100933.25;1739592;81;21135;-85
2020/12/30 11:09:37;;;;;;;13.58;4.35;;;;;;;14.97;81.01;100933.17;1735241;81;21196;-84
2020/12/30 11:12:10;;;;;;;17.95;4.47;;;;;;;15.31;79.72;100921.69;1757726;81;21353;-86
2020/12/30 11:14:40;;;;;;;13.78;4.62;;;;;;;15.66;78.61;100927.13;1742182;81;21048;-82
2020/12/30 11:17:09;;;;;;;14.25;4.85;;;;;;;15.97;77.18;100922.77;1761643;80;21115;-83
2020/12/30 11:19:37;;;;;;;9.65;4.30;;;;;;;16.29;76.29;100923.02;1777507;79;21140;-86
2020/12/30 11:22:06;;;;;;;14.07;5.03;;;;;;;16.53;74.80;100911.39;1780995;80;21271;-82
2020/12/30 11:24:35;;;;;;;15.55;4.83;;;;;;;16.73;73.99;100917.88;1749319;80;21207;-79
2020/12/30 11:27:04;;;;;;;11.00;4.72;;;;;;;16.89;72.09;100913.43;1752320;80;21159;-82
2020/12/30 11:29:32;;;;;;;13.32;4.83;;;;;;;16.94;71.28;100912.56;1759253;80;21798;-80
2020/12/30 11:32:00;;;;;;;14.33;4.85;;;;;;;16.93;71.16;100908.27;1757956;80;21144;-83
2020/12/30 11:34:28;;;;;;;14.63;4.92;;;;;;;16.87;71.23;100903.57;1772976;79;21204;-79
2020/12/30 11:36:56;;;;;;;13.25;4.85;;;;;;;16.72;70.58;100904.42;1777773;80;21261;-79
2020/12/30 11:39:26;;;;;;;14.40;4.67;;;;;;;16.40;71.70;100908.98;1733823;81;21283;-82
2020/12/30 11:41:54;;;;;;;15.03;5.78;;;;;;;16.19;72.83;100916.90;1743365;81;21014;-82
2020/12/30 11:44:22;;;;;;;14.90;5.30;;;;;;;16.16;73.22;100913.23;1736969;81;21206;-84